sensor_id;sensor_type;location;lat;lon;timestamp;temperature;humidity
5842;DHT22;2947;52.276;9.946;2022-10-17T00:01:45;14.80;29.90
5842;DHT22;2947;52.276;9.946;2022-10-17T00:04:11;14.70;32.90
5842;DHT22;2947;52.276;9.946;2022-10-17T00:06:37;14.80;25.30
5842;DHT22;2947;52.276;9.946;2022-10-17T00:09:03;15.00;23.00
5842;DHT22;2947;52.276;9.946;2022-10-17T00:11:29;14.80;29.90
5842;DHT22;2947;52.276;9.946;2022-10-17T00:13:55;14.70;27.90
5842;DHT22;2947;52.276;9.946;2022-10-17T00:16:26;14.70;33.00
5842;DHT22;2947;52.276;9.946;2022-10-17T00:18:54;14.80;34.30
5842;DHT22;2947;52.276;9.946;2022-10-17T00:21:20;14.70;46.90
5842;DHT22;2947;52.276;9.946;2022-10-17T00:23:47;14.60;53.10
5842;DHT22;2947;52.276;9.946;2022-10-17T00:26:13;14.30;42.30
5842;DHT22;2947;52.276;9.946;2022-10-17T00:28:40;14.70;40.00
5842;DHT22;2947;52.276;9.946;2022-10-17T00:31:06;14.60;51.60
5842;DHT22;2947;52.276;9.946;2022-10-17T00:33:33;14.60;62.30
5842;DHT22;2947;52.276;9.946;2022-10-17T00:36:11;14.60;67.10
5842;DHT22;2947;52.276;9.946;2022-10-17T00:38:40;14.50;80.90
5842;DHT22;2947;52.276;9.946;2022-10-17T00:41:07;14.50;86.20
5842;DHT22;2947;52.276;9.946;2022-10-17T00:44:00;14.50;93.10
5842;DHT22;2947;52.276;9.946;2022-10-17T00:46:31;14.50;99.90
5842;DHT22;2947;52.276;9.946;2022-10-17T00:49:02;14.50;99.90
5842;DHT22;2947;52.276;9.946;2022-10-17T00:51:55;14.50;99.90
5842;DHT22;2947;52.276;9.946;2022-10-17T00:54:27;14.60;99.90
5842;DHT22;2947;52.276;9.946;2022-10-17T00:56:56;14.50;99.90
5842;DHT22;2947;52.276;9.946;2022-10-17T00:59:22;14.50;99.90
5842;DHT22;2947;52.276;9.946;2022-10-17T01:02:09;14.50;99.90
5842;DHT22;2947;52.276;9.946;2022-10-17T01:04:41;14.60;99.90
5842;DHT22;2947;52.276;9.946;2022-10-17T01:07:09;14.60;99.90
5842;DHT22;2947;52.276;9.946;2022-10-17T01:09:35;14.60;99.90
5842;DHT22;2947;52.276;9.946;2022-10-17T01:12:23;14.60;99.90
5842;DHT22;2947;52.276;9.946;2022-10-17T01:26:13;14.60;99.90
5842;DHT22;2947;52.276;9.946;2022-10-17T01:31:54;14.50;99.90
5842;DHT22;2947;52.276;9.946;2022-10-17T01:37:12;14.50;99.90
5842;DHT22;2947;52.276;9.946;2022-10-17T01:39:51;14.50;99.90
5842;DHT22;2947;52.276;9.946;2022-10-17T01:45:12;14.50;99.90
5842;DHT22;2947;52.276;9.946;2022-10-17T01:47:41;14.50;99.90
5842;DHT22;2947;52.276;9.946;2022-10-17T01:50:17;14.50;99.90
5842;DHT22;2947;52.276;9.946;2022-10-17T01:52:59;14.50;99.90
5842;DHT22;2947;52.276;9.946;2022-10-17T01:55:32;14.50;99.90
5842;DHT22;2947;52.276;9.946;2022-10-17T01:58:05;14.70;99.90
5842;DHT22;2947;52.276;9.946;2022-10-17T02:00:34;14.40;99.90
5842;DHT22;2947;52.276;9.946;2022-10-17T02:03:05;14.40;99.90
5842;DHT22;2947;52.276;9.946;2022-10-17T02:05:36;14.40;99.90
5842;DHT22;2947;52.276;9.946;2022-10-17T02:08:04;14.30;99.90
5842;DHT22;2947;52.276;9.946;2022-10-17T02:11:12;14.30;99.90
5842;DHT22;2947;52.276;9.946;2022-10-17T02:19:17;14.20;99.90
5842;DHT22;2947;52.276;9.946;2022-10-17T02:24:51;14.20;99.90
5842;DHT22;2947;52.276;9.946;2022-10-17T02:27:51;14.20;99.90
5842;DHT22;2947;52.276;9.946;2022-10-17T02:30:28;14.20;99.90
5842;DHT22;2947;52.276;9.946;2022-10-17T02:34:23;14.50;99.90
5842;DHT22;2947;52.276;9.946;2022-10-17T02:36:25;14.30;99.90
5842;DHT22;2947;52.276;9.946;2022-10-17T02:38:54;14.30;99.90
5842;DHT22;2947;52.276;9.946;2022-10-17T02:41:22;14.20;99.90
5842;DHT22;2947;52.276;9.946;2022-10-17T02:43:49;14.20;99.90
5842;DHT22;2947;52.276;9.946;2022-10-17T02:46:18;14.50;99.90
5842;DHT22;2947;52.276;9.946;2022-10-17T02:48:59;14.20;99.90
5842;DHT22;2947;52.276;9.946;2022-10-17T02:51:54;14.20;99.90
5842;DHT22;2947;52.276;9.946;2022-10-17T02:54:46;14.20;99.90
5842;DHT22;2947;52.276;9.946;2022-10-17T02:57:27;14.10;99.90
5842;DHT22;2947;52.276;9.946;2022-10-17T02:59:57;14.10;99.90
5842;DHT22;2947;52.276;9.946;2022-10-17T03:02:24;14.10;99.90
5842;DHT22;2947;52.276;9.946;2022-10-17T03:04:49;14.10;99.90
5842;DHT22;2947;52.276;9.946;2022-10-17T03:07:15;14.20;99.90
5842;DHT22;2947;52.276;9.946;2022-10-17T03:09:41;14.20;99.90
5842;DHT22;2947;52.276;9.946;2022-10-17T03:12:06;14.20;99.90
5842;DHT22;2947;52.276;9.946;2022-10-17T03:14:32;14.20;99.90
5842;DHT22;2947;52.276;9.946;2022-10-17T03:16:58;14.20;99.90
5842;DHT22;2947;52.276;9.946;2022-10-17T03:19:23;14.20;99.90
5842;DHT22;2947;52.276;9.946;2022-10-17T03:21:49;14.20;99.90
5842;DHT22;2947;52.276;9.946;2022-10-17T03:24:15;14.30;99.90
5842;DHT22;2947;52.276;9.946;2022-10-17T03:26:40;14.30;99.90
5842;DHT22;2947;52.276;9.946;2022-10-17T03:29:06;14.30;99.90
5842;DHT22;2947;52.276;9.946;2022-10-17T03:31:32;14.40;99.90
5842;DHT22;2947;52.276;9.946;2022-10-17T03:33:57;14.40;99.90
5842;DHT22;2947;52.276;9.946;2022-10-17T03:36:23;14.40;99.90
5842;DHT22;2947;52.276;9.946;2022-10-17T03:38:52;14.40;99.90
5842;DHT22;2947;52.276;9.946;2022-10-17T03:41:18;14.40;99.90
5842;DHT22;2947;52.276;9.946;2022-10-17T03:43:44;14.40;99.90
5842;DHT22;2947;52.276;9.946;2022-10-17T03:46:10;14.40;99.90
5842;DHT22;2947;52.276;9.946;2022-10-17T03:48:36;14.40;99.90
5842;DHT22;2947;52.276;9.946;2022-10-17T03:51:04;14.50;99.90
5842;DHT22;2947;52.276;9.946;2022-10-17T03:53:31;14.40;99.90
5842;DHT22;2947;52.276;9.946;2022-10-17T03:56:14;14.50;99.90
5842;DHT22;2947;52.276;9.946;2022-10-17T03:58:41;14.50;99.90
5842;DHT22;2947;52.276;9.946;2022-10-17T04:01:09;14.60;99.90
5842;DHT22;2947;52.276;9.946;2022-10-17T04:03:36;14.60;99.90
5842;DHT22;2947;52.276;9.946;2022-10-17T04:06:03;14.70;99.90
5842;DHT22;2947;52.276;9.946;2022-10-17T04:08:29;14.70;99.90
5842;DHT22;2947;52.276;9.946;2022-10-17T04:11:03;14.80;99.90
5842;DHT22;2947;52.276;9.946;2022-10-17T04:13:32;14.80;99.90
5842;DHT22;2947;52.276;9.946;2022-10-17T04:16:01;14.80;99.90
5842;DHT22;2947;52.276;9.946;2022-10-17T04:18:31;14.90;99.90
5842;DHT22;2947;52.276;9.946;2022-10-17T04:21:00;14.90;99.90
5842;DHT22;2947;52.276;9.946;2022-10-17T04:23:27;15.00;99.90
5842;DHT22;2947;52.276;9.946;2022-10-17T04:25:57;15.00;99.90
5842;DHT22;2947;52.276;9.946;2022-10-17T04:28:24;15.00;99.90
5842;DHT22;2947;52.276;9.946;2022-10-17T04:31:08;15.10;99.90
5842;DHT22;2947;52.276;9.946;2022-10-17T04:33:34;15.10;99.90
5842;DHT22;2947;52.276;9.946;2022-10-17T04:36:14;15.10;99.90
5842;DHT22;2947;52.276;9.946;2022-10-17T04:38:41;15.10;99.90
5842;DHT22;2947;52.276;9.946;2022-10-17T04:41:10;15.10;99.90
5842;DHT22;2947;52.276;9.946;2022-10-17T04:43:39;15.10;99.90
5842;DHT22;2947;52.276;9.946;2022-10-17T04:46:07;15.10;99.90
5842;DHT22;2947;52.276;9.946;2022-10-17T04:48:38;15.10;99.90
5842;DHT22;2947;52.276;9.946;2022-10-17T04:51:07;15.10;99.90
5842;DHT22;2947;52.276;9.946;2022-10-17T04:53:37;15.20;99.90
5842;DHT22;2947;52.276;9.946;2022-10-17T04:56:12;15.20;99.90
5842;DHT22;2947;52.276;9.946;2022-10-17T04:58:40;15.10;99.90
5842;DHT22;2947;52.276;9.946;2022-10-17T05:01:07;15.20;99.90
5842;DHT22;2947;52.276;9.946;2022-10-17T05:03:35;15.20;99.90
5842;DHT22;2947;52.276;9.946;2022-10-17T05:06:05;15.20;99.90
5842;DHT22;2947;52.276;9.946;2022-10-17T05:08:32;15.20;99.90
5842;DHT22;2947;52.276;9.946;2022-10-17T05:10:58;15.20;99.90
5842;DHT22;2947;52.276;9.946;2022-10-17T05:13:24;15.20;99.90
5842;DHT22;2947;52.276;9.946;2022-10-17T05:15:50;15.20;99.90
5842;DHT22;2947;52.276;9.946;2022-10-17T05:18:15;15.20;99.90
5842;DHT22;2947;52.276;9.946;2022-10-17T05:20:41;15.20;99.90
5842;DHT22;2947;52.276;9.946;2022-10-17T05:23:07;15.20;99.90
5842;DHT22;2947;52.276;9.946;2022-10-17T05:25:32;15.30;99.90
5842;DHT22;2947;52.276;9.946;2022-10-17T05:27:58;15.30;99.90
5842;DHT22;2947;52.276;9.946;2022-10-17T05:30:23;15.30;99.90
5842;DHT22;2947;52.276;9.946;2022-10-17T05:32:54;15.40;99.90
5842;DHT22;2947;52.276;9.946;2022-10-17T05:35:21;15.30;99.90
5842;DHT22;2947;52.276;9.946;2022-10-17T05:37:47;15.40;99.90
5842;DHT22;2947;52.276;9.946;2022-10-17T05:40:13;15.40;99.90
5842;DHT22;2947;52.276;9.946;2022-10-17T05:42:38;15.40;99.90
5842;DHT22;2947;52.276;9.946;2022-10-17T05:45:05;15.40;99.90
5842;DHT22;2947;52.276;9.946;2022-10-17T05:47:31;15.40;99.90
5842;DHT22;2947;52.276;9.946;2022-10-17T05:49:56;15.40;99.90
5842;DHT22;2947;52.276;9.946;2022-10-17T05:52:22;15.50;99.90
5842;DHT22;2947;52.276;9.946;2022-10-17T05:54:48;15.50;99.90
5842;DHT22;2947;52.276;9.946;2022-10-17T05:57:13;15.40;99.90
5842;DHT22;2947;52.276;9.946;2022-10-17T05:59:39;15.50;99.90
5842;DHT22;2947;52.276;9.946;2022-10-17T06:02:05;15.40;99.90
5842;DHT22;2947;52.276;9.946;2022-10-17T06:04:31;15.40;99.90
5842;DHT22;2947;52.276;9.946;2022-10-17T06:06:56;15.40;99.90
5842;DHT22;2947;52.276;9.946;2022-10-17T06:09:22;15.40;99.90
5842;DHT22;2947;52.276;9.946;2022-10-17T06:11:48;15.40;99.90
5842;DHT22;2947;52.276;9.946;2022-10-17T06:14:14;15.40;99.90
5842;DHT22;2947;52.276;9.946;2022-10-17T06:16:39;15.40;99.90
5842;DHT22;2947;52.276;9.946;2022-10-17T06:19:05;15.40;99.90
5842;DHT22;2947;52.276;9.946;2022-10-17T06:21:31;15.40;99.90
5842;DHT22;2947;52.276;9.946;2022-10-17T06:24:00;15.40;99.90
5842;DHT22;2947;52.276;9.946;2022-10-17T06:26:26;15.40;99.90
5842;DHT22;2947;52.276;9.946;2022-10-17T06:28:53;15.40;99.90
5842;DHT22;2947;52.276;9.946;2022-10-17T06:31:19;15.40;99.90
5842;DHT22;2947;52.276;9.946;2022-10-17T06:33:45;15.50;99.90
5842;DHT22;2947;52.276;9.946;2022-10-17T06:36:12;15.50;99.90
5842;DHT22;2947;52.276;9.946;2022-10-17T06:38:39;15.50;99.90
5842;DHT22;2947;52.276;9.946;2022-10-17T06:41:11;15.60;99.90
5842;DHT22;2947;52.276;9.946;2022-10-17T06:43:40;15.60;99.90
5842;DHT22;2947;52.276;9.946;2022-10-17T06:46:08;15.60;99.90
5842;DHT22;2947;52.276;9.946;2022-10-17T06:48:34;15.60;99.90
5842;DHT22;2947;52.276;9.946;2022-10-17T06:51:00;15.70;99.90
5842;DHT22;2947;52.276;9.946;2022-10-17T06:53:28;15.80;99.90
5842;DHT22;2947;52.276;9.946;2022-10-17T06:55:55;15.90;99.90
5842;DHT22;2947;52.276;9.946;2022-10-17T06:58:26;15.90;99.90
5842;DHT22;2947;52.276;9.946;2022-10-17T07:01:01;15.90;99.90
5842;DHT22;2947;52.276;9.946;2022-10-17T07:03:28;16.00;99.90
5842;DHT22;2947;52.276;9.946;2022-10-17T07:05:55;16.00;99.90
5842;DHT22;2947;52.276;9.946;2022-10-17T07:08:21;16.00;99.90
5842;DHT22;2947;52.276;9.946;2022-10-17T07:10:47;16.20;99.90
5842;DHT22;2947;52.276;9.946;2022-10-17T07:13:13;16.10;99.90
5842;DHT22;2947;52.276;9.946;2022-10-17T07:15:39;16.20;99.90
5842;DHT22;2947;52.276;9.946;2022-10-17T07:18:06;16.20;99.90
5842;DHT22;2947;52.276;9.946;2022-10-17T07:20:32;16.20;99.90
5842;DHT22;2947;52.276;9.946;2022-10-17T07:22:58;16.20;99.90
5842;DHT22;2947;52.276;9.946;2022-10-17T07:25:24;16.20;99.90
5842;DHT22;2947;52.276;9.946;2022-10-17T07:27:51;16.20;99.90
5842;DHT22;2947;52.276;9.946;2022-10-17T07:30:17;16.20;99.90
5842;DHT22;2947;52.276;9.946;2022-10-17T07:32:44;16.20;99.90
5842;DHT22;2947;52.276;9.946;2022-10-17T07:35:11;16.30;99.90
5842;DHT22;2947;52.276;9.946;2022-10-17T07:37:37;16.60;99.90
5842;DHT22;2947;52.276;9.946;2022-10-17T07:40:04;16.70;99.90
5842;DHT22;2947;52.276;9.946;2022-10-17T07:42:31;16.50;99.90
5842;DHT22;2947;52.276;9.946;2022-10-17T07:44:58;16.50;99.90
5842;DHT22;2947;52.276;9.946;2022-10-17T07:47:24;16.70;99.90
5842;DHT22;2947;52.276;9.946;2022-10-17T07:49:49;16.80;99.90
5842;DHT22;2947;52.276;9.946;2022-10-17T07:52:16;16.80;99.90
5842;DHT22;2947;52.276;9.946;2022-10-17T07:54:42;17.00;99.90
5842;DHT22;2947;52.276;9.946;2022-10-17T07:57:08;17.10;99.90
5842;DHT22;2947;52.276;9.946;2022-10-17T07:59:36;17.20;99.90
5842;DHT22;2947;52.276;9.946;2022-10-17T08:02:03;17.30;99.90
5842;DHT22;2947;52.276;9.946;2022-10-17T08:04:29;17.30;99.90
5842;DHT22;2947;52.276;9.946;2022-10-17T08:06:55;17.40;99.90
5842;DHT22;2947;52.276;9.946;2022-10-17T08:09:21;17.50;99.90
5842;DHT22;2947;52.276;9.946;2022-10-17T08:11:46;17.50;99.90
5842;DHT22;2947;52.276;9.946;2022-10-17T08:14:13;17.50;99.90
5842;DHT22;2947;52.276;9.946;2022-10-17T08:16:41;17.60;99.90
5842;DHT22;2947;52.276;9.946;2022-10-17T08:19:07;17.60;99.90
5842;DHT22;2947;52.276;9.946;2022-10-17T08:21:38;17.70;99.90
5842;DHT22;2947;52.276;9.946;2022-10-17T08:24:05;17.70;99.90
5842;DHT22;2947;52.276;9.946;2022-10-17T08:26:31;17.80;99.90
5842;DHT22;2947;52.276;9.946;2022-10-17T08:28:56;17.90;99.90
5842;DHT22;2947;52.276;9.946;2022-10-17T08:31:22;17.90;99.90
5842;DHT22;2947;52.276;9.946;2022-10-17T08:33:48;18.00;99.90
5842;DHT22;2947;52.276;9.946;2022-10-17T08:36:17;18.10;99.90
5842;DHT22;2947;52.276;9.946;2022-10-17T08:38:44;18.20;99.90
5842;DHT22;2947;52.276;9.946;2022-10-17T08:41:16;18.30;99.90
5842;DHT22;2947;52.276;9.946;2022-10-17T08:44:04;18.30;99.90
5842;DHT22;2947;52.276;9.946;2022-10-17T08:46:41;18.40;99.90
5842;DHT22;2947;52.276;9.946;2022-10-17T08:49:14;18.50;99.90
5842;DHT22;2947;52.276;9.946;2022-10-17T08:51:50;18.50;99.90
5842;DHT22;2947;52.276;9.946;2022-10-17T08:54:23;18.60;99.90
5842;DHT22;2947;52.276;9.946;2022-10-17T08:57:03;18.70;99.90
5842;DHT22;2947;52.276;9.946;2022-10-17T08:59:29;18.80;99.90
5842;DHT22;2947;52.276;9.946;2022-10-17T09:08:08;19.00;99.90
5842;DHT22;2947;52.276;9.946;2022-10-17T09:16:37;19.20;99.90
5842;DHT22;2947;52.276;9.946;2022-10-17T09:19:17;19.30;99.90
5842;DHT22;2947;52.276;9.946;2022-10-17T09:21:51;19.30;99.90
5842;DHT22;2947;52.276;9.946;2022-10-17T09:27:53;19.50;99.90
5842;DHT22;2947;52.276;9.946;2022-10-17T09:32:40;19.50;99.90
5842;DHT22;2947;52.276;9.946;2022-10-17T09:35:12;19.60;99.90
5842;DHT22;2947;52.276;9.946;2022-10-17T09:37:38;19.60;99.90
5842;DHT22;2947;52.276;9.946;2022-10-17T09:40:07;19.60;99.90
5842;DHT22;2947;52.276;9.946;2022-10-17T09:42:44;19.70;99.90
5842;DHT22;2947;52.276;9.946;2022-10-17T09:45:19;19.70;99.90
5842;DHT22;2947;52.276;9.946;2022-10-17T09:48:21;19.80;99.90
5842;DHT22;2947;52.276;9.946;2022-10-17T09:50:48;19.80;99.90
5842;DHT22;2947;52.276;9.946;2022-10-17T09:53:19;19.90;90.60
5842;DHT22;2947;52.276;9.946;2022-10-17T09:55:56;20.00;91.50
5842;DHT22;2947;52.276;9.946;2022-10-17T09:58:27;20.10;82.50
5842;DHT22;2947;52.276;9.946;2022-10-17T10:01:21;20.20;90.70
5842;DHT22;2947;52.276;9.946;2022-10-17T10:04:12;20.30;63.70
5842;DHT22;2947;52.276;9.946;2022-10-17T10:06:40;20.40;27.50
5842;DHT22;2947;52.276;9.946;2022-10-17T10:09:21;20.40;39.10
5842;DHT22;2947;52.276;9.946;2022-10-17T10:11:56;20.50;1.00
5842;DHT22;2947;52.276;9.946;2022-10-17T10:14:33;20.50;1.00
5842;DHT22;2947;52.276;9.946;2022-10-17T10:17:03;20.60;1.00
5842;DHT22;2947;52.276;9.946;2022-10-17T10:19:32;20.50;1.00
5842;DHT22;2947;52.276;9.946;2022-10-17T10:22:05;20.60;1.00
5842;DHT22;2947;52.276;9.946;2022-10-17T10:24:42;20.70;1.00
5842;DHT22;2947;52.276;9.946;2022-10-17T10:27:14;20.80;99.90
5842;DHT22;2947;52.276;9.946;2022-10-17T10:29:47;20.90;1.00
5842;DHT22;2947;52.276;9.946;2022-10-17T10:34:59;20.90;1.00
5842;DHT22;2947;52.276;9.946;2022-10-17T10:37:52;21.00;1.00
5842;DHT22;2947;52.276;9.946;2022-10-17T10:41:04;21.10;99.90
5842;DHT22;2947;52.276;9.946;2022-10-17T10:43:33;21.10;99.90
5842;DHT22;2947;52.276;9.946;2022-10-17T10:46:04;21.30;99.90
5842;DHT22;2947;52.276;9.946;2022-10-17T10:49:00;21.40;1.00
5842;DHT22;2947;52.276;9.946;2022-10-17T10:54:19;21.40;1.00
5842;DHT22;2947;52.276;9.946;2022-10-17T10:56:53;21.50;1.00
5842;DHT22;2947;52.276;9.946;2022-10-17T10:59:22;21.60;56.80
5842;DHT22;2947;52.276;9.946;2022-10-17T11:02:20;21.60;1.00
5842;DHT22;2947;52.276;9.946;2022-10-17T11:04:57;21.60;1.00
5842;DHT22;2947;52.276;9.946;2022-10-17T11:07:59;21.60;1.00
5842;DHT22;2947;52.276;9.946;2022-10-17T11:10:35;21.60;1.00
5842;DHT22;2947;52.276;9.946;2022-10-17T11:13:12;21.60;99.90
5842;DHT22;2947;52.276;9.946;2022-10-17T11:16:14;21.50;99.90
5842;DHT22;2947;52.276;9.946;2022-10-17T11:21:48;21.80;1.00
5842;DHT22;2947;52.276;9.946;2022-10-17T11:25:42;21.90;99.90
5842;DHT22;2947;52.276;9.946;2022-10-17T11:27:37;22.00;1.00
5842;DHT22;2947;52.276;9.946;2022-10-17T11:30:03;22.10;99.90
5842;DHT22;2947;52.276;9.946;2022-10-17T11:35:35;22.10;99.90
5842;DHT22;2947;52.276;9.946;2022-10-17T11:38:21;22.10;99.90
5842;DHT22;2947;52.276;9.946;2022-10-17T11:40:55;22.10;1.00
5842;DHT22;2947;52.276;9.946;2022-10-17T11:43:32;22.10;94.60
5842;DHT22;2947;52.276;9.946;2022-10-17T11:46:17;22.20;99.90
5842;DHT22;2947;52.276;9.946;2022-10-17T11:48:56;22.10;99.90
5842;DHT22;2947;52.276;9.946;2022-10-17T11:51:37;22.20;1.00
5842;DHT22;2947;52.276;9.946;2022-10-17T11:54:26;22.20;99.90
5842;DHT22;2947;52.276;9.946;2022-10-17T12:06:38;22.40;1.00
5842;DHT22;2947;52.276;9.946;2022-10-17T12:09:23;22.50;1.00
5842;DHT22;2947;52.276;9.946;2022-10-17T12:11:54;22.50;1.00
5842;DHT22;2947;52.276;9.946;2022-10-17T12:17:31;22.60;1.00
5842;DHT22;2947;52.276;9.946;2022-10-17T12:25:25;22.60;1.00
5842;DHT22;2947;52.276;9.946;2022-10-17T12:28:23;22.60;39.30
5842;DHT22;2947;52.276;9.946;2022-10-17T12:31:24;22.60;99.90
5842;DHT22;2947;52.276;9.946;2022-10-17T12:33:55;22.70;1.00
5842;DHT22;2947;52.276;9.946;2022-10-17T12:46:46;22.70;1.00
5842;DHT22;2947;52.276;9.946;2022-10-17T12:54:58;22.70;1.00
5842;DHT22;2947;52.276;9.946;2022-10-17T13:00:32;22.70;1.00
5842;DHT22;2947;52.276;9.946;2022-10-17T13:03:12;22.70;99.90
5842;DHT22;2947;52.276;9.946;2022-10-17T13:05:46;22.80;99.90
5842;DHT22;2947;52.276;9.946;2022-10-17T13:08:18;22.80;99.90
5842;DHT22;2947;52.276;9.946;2022-10-17T13:10:49;22.80;99.90
5842;DHT22;2947;52.276;9.946;2022-10-17T13:15:57;22.80;99.90
5842;DHT22;2947;52.276;9.946;2022-10-17T13:18:25;22.80;99.90
5842;DHT22;2947;52.276;9.946;2022-10-17T13:23:30;22.80;99.90
5842;DHT22;2947;52.276;9.946;2022-10-17T13:28:36;22.80;99.90
5842;DHT22;2947;52.276;9.946;2022-10-17T13:31:01;22.80;99.90
5842;DHT22;2947;52.276;9.946;2022-10-17T13:33:37;22.80;99.90
5842;DHT22;2947;52.276;9.946;2022-10-17T13:36:06;22.80;99.90
5842;DHT22;2947;52.276;9.946;2022-10-17T13:38:37;22.80;99.90
5842;DHT22;2947;52.276;9.946;2022-10-17T13:41:03;22.70;1.00
5842;DHT22;2947;52.276;9.946;2022-10-17T13:43:36;22.70;99.90
5842;DHT22;2947;52.276;9.946;2022-10-17T13:46:03;22.70;1.00
5842;DHT22;2947;52.276;9.946;2022-10-17T13:48:32;22.70;1.00
5842;DHT22;2947;52.276;9.946;2022-10-17T13:51:02;22.60;1.00
5842;DHT22;2947;52.276;9.946;2022-10-17T13:53:35;22.60;1.00
5842;DHT22;2947;52.276;9.946;2022-10-17T13:58:46;22.60;1.00
5842;DHT22;2947;52.276;9.946;2022-10-17T14:01:16;22.60;20.90
5842;DHT22;2947;52.276;9.946;2022-10-17T14:03:44;22.50;39.80
5842;DHT22;2947;52.276;9.946;2022-10-17T14:06:22;22.60;99.90
5842;DHT22;2947;52.276;9.946;2022-10-17T14:09:06;22.60;99.90
5842;DHT22;2947;52.276;9.946;2022-10-17T14:11:42;22.50;99.90
5842;DHT22;2947;52.276;9.946;2022-10-17T14:14:21;22.50;1.00
5842;DHT22;2947;52.276;9.946;2022-10-17T14:16:48;22.40;1.00
5842;DHT22;2947;52.276;9.946;2022-10-17T14:19:28;22.40;1.00
5842;DHT22;2947;52.276;9.946;2022-10-17T14:22:14;22.40;99.90
5842;DHT22;2947;52.276;9.946;2022-10-17T14:24:42;22.40;99.90
5842;DHT22;2947;52.276;9.946;2022-10-17T14:30:52;22.30;99.90
5842;DHT22;2947;52.276;9.946;2022-10-17T14:32:58;22.30;99.90
5842;DHT22;2947;52.276;9.946;2022-10-17T14:35:25;22.30;1.00
5842;DHT22;2947;52.276;9.946;2022-10-17T14:37:52;22.30;99.90
5842;DHT22;2947;52.276;9.946;2022-10-17T14:40:24;22.20;99.90
5842;DHT22;2947;52.276;9.946;2022-10-17T14:42:52;22.20;1.00
5842;DHT22;2947;52.276;9.946;2022-10-17T14:45:27;22.20;99.90
5842;DHT22;2947;52.276;9.946;2022-10-17T14:48:01;22.20;14.20
5842;DHT22;2947;52.276;9.946;2022-10-17T14:50:31;22.20;1.00
5842;DHT22;2947;52.276;9.946;2022-10-17T14:53:19;22.20;1.00
5842;DHT22;2947;52.276;9.946;2022-10-17T14:55:59;22.20;1.00
5842;DHT22;2947;52.276;9.946;2022-10-17T14:58:28;22.20;99.90
5842;DHT22;2947;52.276;9.946;2022-10-17T15:00:57;22.20;99.90
5842;DHT22;2947;52.276;9.946;2022-10-17T15:03:24;22.10;99.90
5842;DHT22;2947;52.276;9.946;2022-10-17T15:05:50;22.20;1.00
5842;DHT22;2947;52.276;9.946;2022-10-17T15:08:18;22.10;99.90
5842;DHT22;2947;52.276;9.946;2022-10-17T15:10:46;22.10;99.90
5842;DHT22;2947;52.276;9.946;2022-10-17T15:13:13;22.10;1.00
5842;DHT22;2947;52.276;9.946;2022-10-17T15:15:40;22.10;99.90
5842;DHT22;2947;52.276;9.946;2022-10-17T15:18:08;22.10;1.00
5842;DHT22;2947;52.276;9.946;2022-10-17T15:20:35;22.10;99.90
5842;DHT22;2947;52.276;9.946;2022-10-17T15:23:02;22.00;1.00
5842;DHT22;2947;52.276;9.946;2022-10-17T15:25:29;22.00;1.00
5842;DHT22;2947;52.276;9.946;2022-10-17T15:27:56;22.00;1.00
5842;DHT22;2947;52.276;9.946;2022-10-17T15:30:25;21.90;1.00
5842;DHT22;2947;52.276;9.946;2022-10-17T15:32:51;21.90;50.60
5842;DHT22;2947;52.276;9.946;2022-10-17T15:35:18;21.90;1.00
5842;DHT22;2947;52.276;9.946;2022-10-17T15:37:45;21.90;99.90
5842;DHT22;2947;52.276;9.946;2022-10-17T15:40:25;21.80;99.90
5842;DHT22;2947;52.276;9.946;2022-10-17T15:42:53;21.80;99.90
5842;DHT22;2947;52.276;9.946;2022-10-17T15:45:21;21.80;1.00
5842;DHT22;2947;52.276;9.946;2022-10-17T15:47:55;21.80;1.00
5842;DHT22;2947;52.276;9.946;2022-10-17T15:50:26;21.80;99.90
5842;DHT22;2947;52.276;9.946;2022-10-17T15:52:54;21.70;99.90
5842;DHT22;2947;52.276;9.946;2022-10-17T15:55:20;21.70;99.90
5842;DHT22;2947;52.276;9.946;2022-10-17T15:57:47;21.60;99.90
5842;DHT22;2947;52.276;9.946;2022-10-17T16:00:19;21.60;99.90
5842;DHT22;2947;52.276;9.946;2022-10-17T16:02:48;21.60;99.90
5842;DHT22;2947;52.276;9.946;2022-10-17T16:05:21;21.60;99.90
5842;DHT22;2947;52.276;9.946;2022-10-17T16:07:50;21.60;1.00
5842;DHT22;2947;52.276;9.946;2022-10-17T16:10:18;21.50;1.00
5842;DHT22;2947;52.276;9.946;2022-10-17T16:12:44;21.50;1.00
5842;DHT22;2947;52.276;9.946;2022-10-17T16:15:25;21.40;41.80
5842;DHT22;2947;52.276;9.946;2022-10-17T16:17:53;21.40;99.90
5842;DHT22;2947;52.276;9.946;2022-10-17T16:20:20;21.30;57.30
5842;DHT22;2947;52.276;9.946;2022-10-17T16:22:47;21.30;99.90
5842;DHT22;2947;52.276;9.946;2022-10-17T16:25:23;21.20;99.90
5842;DHT22;2947;52.276;9.946;2022-10-17T16:27:52;21.20;99.90
5842;DHT22;2947;52.276;9.946;2022-10-17T16:30:21;21.10;99.90
5842;DHT22;2947;52.276;9.946;2022-10-17T16:32:47;21.10;99.90
5842;DHT22;2947;52.276;9.946;2022-10-17T16:35:18;21.10;99.90
5842;DHT22;2947;52.276;9.946;2022-10-17T16:37:44;21.00;99.90
5842;DHT22;2947;52.276;9.946;2022-10-17T16:40:10;21.00;99.90
5842;DHT22;2947;52.276;9.946;2022-10-17T16:42:36;20.90;99.90
5842;DHT22;2947;52.276;9.946;2022-10-17T16:45:02;20.90;99.90
5842;DHT22;2947;52.276;9.946;2022-10-17T16:47:28;20.90;99.90
5842;DHT22;2947;52.276;9.946;2022-10-17T16:49:54;20.90;99.90
5842;DHT22;2947;52.276;9.946;2022-10-17T16:52:20;20.90;99.90
5842;DHT22;2947;52.276;9.946;2022-10-17T16:54:45;20.90;99.90
5842;DHT22;2947;52.276;9.946;2022-10-17T16:57:11;21.00;23.50
5842;DHT22;2947;52.276;9.946;2022-10-17T16:59:37;21.00;1.00
5842;DHT22;2947;52.276;9.946;2022-10-17T17:02:03;21.00;1.00
5842;DHT22;2947;52.276;9.946;2022-10-17T17:04:28;21.00;37.60
5842;DHT22;2947;52.276;9.946;2022-10-17T17:06:54;20.90;99.90
5842;DHT22;2947;52.276;9.946;2022-10-17T17:09:20;20.90;99.90
5842;DHT22;2947;52.276;9.946;2022-10-17T17:11:46;20.90;99.90
5842;DHT22;2947;52.276;9.946;2022-10-17T17:14:12;20.80;99.90
5842;DHT22;2947;52.276;9.946;2022-10-17T17:16:37;20.90;99.90
5842;DHT22;2947;52.276;9.946;2022-10-17T17:19:05;20.80;99.90
5842;DHT22;2947;52.276;9.946;2022-10-17T17:21:33;20.80;99.90
5842;DHT22;2947;52.276;9.946;2022-10-17T17:24:01;20.80;99.90
5842;DHT22;2947;52.276;9.946;2022-10-17T17:26:29;20.80;99.90
5842;DHT22;2947;52.276;9.946;2022-10-17T17:28:58;20.70;99.90
5842;DHT22;2947;52.276;9.946;2022-10-17T17:31:30;20.70;99.90
5842;DHT22;2947;52.276;9.946;2022-10-17T17:33:57;20.70;99.90
5842;DHT22;2947;52.276;9.946;2022-10-17T17:36:25;20.70;99.90
5842;DHT22;2947;52.276;9.946;2022-10-17T17:38:54;20.70;99.90
5842;DHT22;2947;52.276;9.946;2022-10-17T17:41:22;20.60;99.90
5842;DHT22;2947;52.276;9.946;2022-10-17T17:43:49;20.60;1.00
5842;DHT22;2947;52.276;9.946;2022-10-17T17:46:17;20.60;1.00
5842;DHT22;2947;52.276;9.946;2022-10-17T17:48:45;20.60;1.00
5842;DHT22;2947;52.276;9.946;2022-10-17T17:51:14;20.50;1.00
5842;DHT22;2947;52.276;9.946;2022-10-17T17:53:42;20.50;1.00
5842;DHT22;2947;52.276;9.946;2022-10-17T17:56:10;20.50;1.00
5842;DHT22;2947;52.276;9.946;2022-10-17T17:58:42;20.50;1.00
5842;DHT22;2947;52.276;9.946;2022-10-17T18:01:13;20.40;1.00
5842;DHT22;2947;52.276;9.946;2022-10-17T18:03:43;20.40;1.00
5842;DHT22;2947;52.276;9.946;2022-10-17T18:06:09;20.30;1.00
5842;DHT22;2947;52.276;9.946;2022-10-17T18:08:35;20.30;1.00
5842;DHT22;2947;52.276;9.946;2022-10-17T18:11:01;20.20;1.00
5842;DHT22;2947;52.276;9.946;2022-10-17T18:13:28;20.20;1.00
5842;DHT22;2947;52.276;9.946;2022-10-17T18:15:58;20.10;1.00
5842;DHT22;2947;52.276;9.946;2022-10-17T18:18:26;19.90;1.00